sensor_id;sensor_type;location;lat;lon;timestamp;temperature;humidity
11764;DHT22;5939;56.522;14.950;2023-07-29T00:01:23;17.00;99.90
11764;DHT22;5939;56.522;14.950;2023-07-29T00:03:49;16.90;99.90
11764;DHT22;5939;56.522;14.950;2023-07-29T00:06:14;16.90;99.90
11764;DHT22;5939;56.522;14.950;2023-07-29T00:08:40;16.90;99.90
11764;DHT22;5939;56.522;14.950;2023-07-29T00:11:06;16.90;99.90
11764;DHT22;5939;56.522;14.950;2023-07-29T00:13:31;16.90;99.90
11764;DHT22;5939;56.522;14.950;2023-07-29T00:15:57;16.80;99.90
11764;DHT22;5939;56.522;14.950;2023-07-29T00:18:22;16.80;99.90
11764;DHT22;5939;56.522;14.950;2023-07-29T00:20:49;16.80;99.90
11764;DHT22;5939;56.522;14.950;2023-07-29T00:23:16;16.70;99.90
11764;DHT22;5939;56.522;14.950;2023-07-29T00:25:44;16.70;99.90
11764;DHT22;5939;56.522;14.950;2023-07-29T00:28:12;16.70;99.90
11764;DHT22;5939;56.522;14.950;2023-07-29T00:30:37;16.70;99.90
11764;DHT22;5939;56.522;14.950;2023-07-29T00:33:03;16.60;99.90
11764;DHT22;5939;56.522;14.950;2023-07-29T00:35:29;16.60;99.90
11764;DHT22;5939;56.522;14.950;2023-07-29T00:37:54;16.60;99.90
11764;DHT22;5939;56.522;14.950;2023-07-29T00:40:21;16.60;99.90
11764;DHT22;5939;56.522;14.950;2023-07-29T00:42:48;16.60;99.90
11764;DHT22;5939;56.522;14.950;2023-07-29T00:45:15;16.50;99.90
11764;DHT22;5939;56.522;14.950;2023-07-29T00:47:41;16.50;99.90
11764;DHT22;5939;56.522;14.950;2023-07-29T00:50:09;16.50;99.90
11764;DHT22;5939;56.522;14.950;2023-07-29T00:52:36;16.50;99.90
11764;DHT22;5939;56.522;14.950;2023-07-29T00:55:03;16.40;99.90
11764;DHT22;5939;56.522;14.950;2023-07-29T00:57:29;16.40;99.90
11764;DHT22;5939;56.522;14.950;2023-07-29T00:59:55;16.40;99.90
11764;DHT22;5939;56.522;14.950;2023-07-29T01:02:21;16.40;99.90
11764;DHT22;5939;56.522;14.950;2023-07-29T01:04:54;16.30;99.90
11764;DHT22;5939;56.522;14.950;2023-07-29T01:10:04;16.30;99.90
11764;DHT22;5939;56.522;14.950;2023-07-29T01:13:00;16.30;99.90
11764;DHT22;5939;56.522;14.950;2023-07-29T01:15:30;16.20;99.90
11764;DHT22;5939;56.522;14.950;2023-07-29T01:18:10;16.30;99.90
11764;DHT22;5939;56.522;14.950;2023-07-29T01:20:38;16.20;99.90
11764;DHT22;5939;56.522;14.950;2023-07-29T01:23:05;16.20;99.90
11764;DHT22;5939;56.522;14.950;2023-07-29T01:25:31;16.10;99.90
11764;DHT22;5939;56.522;14.950;2023-07-29T01:27:56;16.10;99.90
11764;DHT22;5939;56.522;14.950;2023-07-29T01:30:29;16.10;99.90
11764;DHT22;5939;56.522;14.950;2023-07-29T01:33:01;16.10;99.90
11764;DHT22;5939;56.522;14.950;2023-07-29T01:38:09;16.10;99.90
11764;DHT22;5939;56.522;14.950;2023-07-29T01:40:36;16.00;99.90
11764;DHT22;5939;56.522;14.950;2023-07-29T01:43:01;16.00;99.90
11764;DHT22;5939;56.522;14.950;2023-07-29T01:45:28;16.00;99.90
11764;DHT22;5939;56.522;14.950;2023-07-29T01:47:57;16.00;99.90
11764;DHT22;5939;56.522;14.950;2023-07-29T01:50:22;15.90;99.90
11764;DHT22;5939;56.522;14.950;2023-07-29T01:52:48;15.90;99.90
11764;DHT22;5939;56.522;14.950;2023-07-29T01:55:14;15.90;99.90
11764;DHT22;5939;56.522;14.950;2023-07-29T01:57:39;15.90;99.90
11764;DHT22;5939;56.522;14.950;2023-07-29T02:00:06;15.80;99.90
11764;DHT22;5939;56.522;14.950;2023-07-29T02:02:31;15.90;99.90
11764;DHT22;5939;56.522;14.950;2023-07-29T02:04:57;15.80;99.90
11764;DHT22;5939;56.522;14.950;2023-07-29T02:07:23;15.80;99.90
11764;DHT22;5939;56.522;14.950;2023-07-29T02:09:48;15.80;99.90
11764;DHT22;5939;56.522;14.950;2023-07-29T02:12:14;15.80;99.90
11764;DHT22;5939;56.522;14.950;2023-07-29T02:14:39;15.80;99.90
11764;DHT22;5939;56.522;14.950;2023-07-29T02:17:05;15.70;99.90
11764;DHT22;5939;56.522;14.950;2023-07-29T02:19:31;15.70;99.90
11764;DHT22;5939;56.522;14.950;2023-07-29T02:21:56;15.70;99.90
11764;DHT22;5939;56.522;14.950;2023-07-29T02:24:22;15.70;99.90
11764;DHT22;5939;56.522;14.950;2023-07-29T02:26:48;15.60;99.90
11764;DHT22;5939;56.522;14.950;2023-07-29T02:29:13;15.60;99.90
11764;DHT22;5939;56.522;14.950;2023-07-29T02:31:39;15.60;99.90
11764;DHT22;5939;56.522;14.950;2023-07-29T02:34:04;15.60;99.90
11764;DHT22;5939;56.522;14.950;2023-07-29T02:36:30;15.50;99.90
11764;DHT22;5939;56.522;14.950;2023-07-29T02:38:56;15.50;99.90
11764;DHT22;5939;56.522;14.950;2023-07-29T02:41:21;15.50;99.90
11764;DHT22;5939;56.522;14.950;2023-07-29T02:43:50;15.50;99.90
11764;DHT22;5939;56.522;14.950;2023-07-29T02:46:16;15.50;99.90
11764;DHT22;5939;56.522;14.950;2023-07-29T02:48:43;15.50;99.90
11764;DHT22;5939;56.522;14.950;2023-07-29T02:51:09;15.50;99.90
11764;DHT22;5939;56.522;14.950;2023-07-29T02:53:35;15.50;99.90
11764;DHT22;5939;56.522;14.950;2023-07-29T02:56:02;15.40;99.90
11764;DHT22;5939;56.522;14.950;2023-07-29T02:58:28;15.40;99.90
11764;DHT22;5939;56.522;14.950;2023-07-29T03:01:01;15.40;99.90
11764;DHT22;5939;56.522;14.950;2023-07-29T03:03:27;15.40;99.90
11764;DHT22;5939;56.522;14.950;2023-07-29T03:06:06;15.40;99.90
11764;DHT22;5939;56.522;14.950;2023-07-29T03:08:32;15.30;99.90
11764;DHT22;5939;56.522;14.950;2023-07-29T03:11:04;15.30;99.90
11764;DHT22;5939;56.522;14.950;2023-07-29T03:13:30;15.30;99.90
11764;DHT22;5939;56.522;14.950;2023-07-29T03:16:11;15.30;99.90
11764;DHT22;5939;56.522;14.950;2023-07-29T03:18:37;15.30;99.90
11764;DHT22;5939;56.522;14.950;2023-07-29T03:21:03;15.30;99.90
11764;DHT22;5939;56.522;14.950;2023-07-29T03:23:30;15.20;99.90
11764;DHT22;5939;56.522;14.950;2023-07-29T03:25:56;15.20;99.90
11764;DHT22;5939;56.522;14.950;2023-07-29T03:28:28;15.20;99.90
11764;DHT22;5939;56.522;14.950;2023-07-29T03:30:58;15.20;99.90
11764;DHT22;5939;56.522;14.950;2023-07-29T03:33:24;15.20;99.90
11764;DHT22;5939;56.522;14.950;2023-07-29T03:35:50;15.20;99.90
11764;DHT22;5939;56.522;14.950;2023-07-29T03:38:16;15.10;99.90
11764;DHT22;5939;56.522;14.950;2023-07-29T03:40:42;15.10;99.90
11764;DHT22;5939;56.522;14.950;2023-07-29T03:43:08;15.10;99.90
11764;DHT22;5939;56.522;14.950;2023-07-29T03:45:35;15.10;99.90
11764;DHT22;5939;56.522;14.950;2023-07-29T03:48:01;15.10;99.90
11764;DHT22;5939;56.522;14.950;2023-07-29T03:50:28;15.00;99.90
11764;DHT22;5939;56.522;14.950;2023-07-29T03:52:54;15.10;99.90
11764;DHT22;5939;56.522;14.950;2023-07-29T03:55:19;15.10;99.90
11764;DHT22;5939;56.522;14.950;2023-07-29T03:57:46;15.00;99.90
11764;DHT22;5939;56.522;14.950;2023-07-29T04:00:12;15.00;99.90
11764;DHT22;5939;56.522;14.950;2023-07-29T04:02:37;15.00;99.90
11764;DHT22;5939;56.522;14.950;2023-07-29T04:05:05;15.00;99.90
11764;DHT22;5939;56.522;14.950;2023-07-29T04:07:31;15.00;99.90
11764;DHT22;5939;56.522;14.950;2023-07-29T04:09:57;15.00;99.90
11764;DHT22;5939;56.522;14.950;2023-07-29T04:12:23;15.00;99.90
11764;DHT22;5939;56.522;14.950;2023-07-29T04:14:49;14.90;99.90
11764;DHT22;5939;56.522;14.950;2023-07-29T04:17:15;15.00;99.90
11764;DHT22;5939;56.522;14.950;2023-07-29T04:19:40;15.00;99.90
11764;DHT22;5939;56.522;14.950;2023-07-29T04:22:06;15.00;99.90
11764;DHT22;5939;56.522;14.950;2023-07-29T04:24:32;15.00;99.90
11764;DHT22;5939;56.522;14.950;2023-07-29T04:26:58;14.90;99.90
11764;DHT22;5939;56.522;14.950;2023-07-29T04:29:23;14.90;99.90
11764;DHT22;5939;56.522;14.950;2023-07-29T04:31:52;14.90;99.90
11764;DHT22;5939;56.522;14.950;2023-07-29T04:34:18;14.90;99.90
11764;DHT22;5939;56.522;14.950;2023-07-29T04:36:45;14.90;99.90
11764;DHT22;5939;56.522;14.950;2023-07-29T04:39:11;14.90;99.90
11764;DHT22;5939;56.522;14.950;2023-07-29T04:41:37;14.90;99.90
11764;DHT22;5939;56.522;14.950;2023-07-29T04:44:02;14.90;99.90
11764;DHT22;5939;56.522;14.950;2023-07-29T04:46:28;14.90;99.90
11764;DHT22;5939;56.522;14.950;2023-07-29T04:48:54;14.90;99.90
11764;DHT22;5939;56.522;14.950;2023-07-29T04:51:19;14.90;99.90
11764;DHT22;5939;56.522;14.950;2023-07-29T04:53:45;14.90;99.90
11764;DHT22;5939;56.522;14.950;2023-07-29T04:56:11;14.90;99.90
11764;DHT22;5939;56.522;14.950;2023-07-29T04:58:36;14.90;99.90
11764;DHT22;5939;56.522;14.950;2023-07-29T05:01:03;14.90;99.90
11764;DHT22;5939;56.522;14.950;2023-07-29T05:03:29;14.90;99.90
11764;DHT22;5939;56.522;14.950;2023-07-29T05:05:55;14.90;99.90
11764;DHT22;5939;56.522;14.950;2023-07-29T05:08:21;14.90;99.90
11764;DHT22;5939;56.522;14.950;2023-07-29T05:10:50;14.90;99.90
11764;DHT22;5939;56.522;14.950;2023-07-29T05:13:17;14.90;99.90
11764;DHT22;5939;56.522;14.950;2023-07-29T05:15:43;14.90;99.90
11764;DHT22;5939;56.522;14.950;2023-07-29T05:18:08;14.90;99.90
11764;DHT22;5939;56.522;14.950;2023-07-29T05:20:34;14.90;99.90
11764;DHT22;5939;56.522;14.950;2023-07-29T05:23:00;14.90;99.90
11764;DHT22;5939;56.522;14.950;2023-07-29T05:25:26;14.90;99.90
11764;DHT22;5939;56.522;14.950;2023-07-29T05:27:52;14.90;99.90
11764;DHT22;5939;56.522;14.950;2023-07-29T05:30:17;14.90;99.90
11764;DHT22;5939;56.522;14.950;2023-07-29T05:32:43;14.90;99.90
11764;DHT22;5939;56.522;14.950;2023-07-29T05:35:10;14.90;99.90
11764;DHT22;5939;56.522;14.950;2023-07-29T05:37:38;14.90;99.90
11764;DHT22;5939;56.522;14.950;2023-07-29T05:40:05;14.90;99.90
11764;DHT22;5939;56.522;14.950;2023-07-29T05:42:32;15.00;99.90
11764;DHT22;5939;56.522;14.950;2023-07-29T05:44:58;15.00;99.90
11764;DHT22;5939;56.522;14.950;2023-07-29T05:47:24;15.00;99.90
11764;DHT22;5939;56.522;14.950;2023-07-29T05:49:49;15.10;99.90
11764;DHT22;5939;56.522;14.950;2023-07-29T05:52:15;15.10;99.90
11764;DHT22;5939;56.522;14.950;2023-07-29T05:54:41;15.20;99.90
11764;DHT22;5939;56.522;14.950;2023-07-29T05:57:09;15.20;99.90
11764;DHT22;5939;56.522;14.950;2023-07-29T05:59:34;15.30;99.90
11764;DHT22;5939;56.522;14.950;2023-07-29T06:02:00;15.50;99.90
11764;DHT22;5939;56.522;14.950;2023-07-29T06:04:26;15.50;99.90
11764;DHT22;5939;56.522;14.950;2023-07-29T06:06:51;15.60;99.90
11764;DHT22;5939;56.522;14.950;2023-07-29T06:09:17;15.70;99.90
11764;DHT22;5939;56.522;14.950;2023-07-29T06:11:42;15.80;99.90
11764;DHT22;5939;56.522;14.950;2023-07-29T06:14:08;15.90;99.90
11764;DHT22;5939;56.522;14.950;2023-07-29T06:16:34;16.10;99.90
11764;DHT22;5939;56.522;14.950;2023-07-29T06:18:59;16.20;99.90
11764;DHT22;5939;56.522;14.950;2023-07-29T06:21:25;16.30;99.90
11764;DHT22;5939;56.522;14.950;2023-07-29T06:23:51;16.40;99.90
11764;DHT22;5939;56.522;14.950;2023-07-29T06:26:16;16.50;99.90
11764;DHT22;5939;56.522;14.950;2023-07-29T06:28:42;16.60;99.90
11764;DHT22;5939;56.522;14.950;2023-07-29T06:31:08;16.80;99.90
11764;DHT22;5939;56.522;14.950;2023-07-29T06:33:33;16.90;99.90
11764;DHT22;5939;56.522;14.950;2023-07-29T06:35:59;17.00;99.90
11764;DHT22;5939;56.522;14.950;2023-07-29T06:38:24;17.10;99.90
11764;DHT22;5939;56.522;14.950;2023-07-29T06:40:50;17.20;99.90
11764;DHT22;5939;56.522;14.950;2023-07-29T06:43:16;17.40;99.90
11764;DHT22;5939;56.522;14.950;2023-07-29T06:45:42;17.50;99.90
11764;DHT22;5939;56.522;14.950;2023-07-29T06:48:08;17.60;99.90
11764;DHT22;5939;56.522;14.950;2023-07-29T06:50:34;17.80;99.90
11764;DHT22;5939;56.522;14.950;2023-07-29T06:52:59;17.90;99.90
11764;DHT22;5939;56.522;14.950;2023-07-29T06:55:25;18.00;99.90
11764;DHT22;5939;56.522;14.950;2023-07-29T06:57:50;18.10;99.90
11764;DHT22;5939;56.522;14.950;2023-07-29T07:00:16;18.20;99.90
11764;DHT22;5939;56.522;14.950;2023-07-29T07:02:42;18.40;99.90
11764;DHT22;5939;56.522;14.950;2023-07-29T07:05:08;18.40;99.90
11764;DHT22;5939;56.522;14.950;2023-07-29T07:07:33;18.50;99.90
11764;DHT22;5939;56.522;14.950;2023-07-29T07:09:59;18.60;99.90
11764;DHT22;5939;56.522;14.950;2023-07-29T07:12:25;18.80;99.90
11764;DHT22;5939;56.522;14.950;2023-07-29T07:14:50;18.90;99.90
11764;DHT22;5939;56.522;14.950;2023-07-29T07:17:16;19.00;99.90
11764;DHT22;5939;56.522;14.950;2023-07-29T07:19:42;19.10;99.90
11764;DHT22;5939;56.522;14.950;2023-07-29T07:22:07;19.20;99.90
11764;DHT22;5939;56.522;14.950;2023-07-29T07:24:33;19.30;99.90
11764;DHT22;5939;56.522;14.950;2023-07-29T07:26:59;19.40;99.90
11764;DHT22;5939;56.522;14.950;2023-07-29T07:29:24;19.50;99.90
11764;DHT22;5939;56.522;14.950;2023-07-29T07:31:52;19.60;99.90
11764;DHT22;5939;56.522;14.950;2023-07-29T07:34:19;19.70;99.90
11764;DHT22;5939;56.522;14.950;2023-07-29T07:36:44;19.80;99.90
11764;DHT22;5939;56.522;14.950;2023-07-29T07:39:10;19.80;99.90
11764;DHT22;5939;56.522;14.950;2023-07-29T07:41:36;19.90;99.90
11764;DHT22;5939;56.522;14.950;2023-07-29T07:44:01;20.00;99.90
11764;DHT22;5939;56.522;14.950;2023-07-29T07:46:28;20.10;99.90
11764;DHT22;5939;56.522;14.950;2023-07-29T07:48:54;20.20;99.90
11764;DHT22;5939;56.522;14.950;2023-07-29T07:51:19;20.20;99.90
11764;DHT22;5939;56.522;14.950;2023-07-29T07:53:45;20.40;99.90
11764;DHT22;5939;56.522;14.950;2023-07-29T07:56:10;20.40;99.90
11764;DHT22;5939;56.522;14.950;2023-07-29T07:58:36;20.50;99.90
11764;DHT22;5939;56.522;14.950;2023-07-29T08:01:05;20.60;99.90
11764;DHT22;5939;56.522;14.950;2023-07-29T08:03:32;20.70;99.90
11764;DHT22;5939;56.522;14.950;2023-07-29T08:05:58;20.70;99.90
11764;DHT22;5939;56.522;14.950;2023-07-29T08:08:25;20.80;99.90
11764;DHT22;5939;56.522;14.950;2023-07-29T08:10:52;20.80;99.90
11764;DHT22;5939;56.522;14.950;2023-07-29T08:13:17;20.90;99.90
11764;DHT22;5939;56.522;14.950;2023-07-29T08:15:49;21.00;99.90
11764;DHT22;5939;56.522;14.950;2023-07-29T08:18:15;21.00;99.90
11764;DHT22;5939;56.522;14.950;2023-07-29T08:20:50;21.10;99.90
11764;DHT22;5939;56.522;14.950;2023-07-29T08:23:16;21.10;99.90
11764;DHT22;5939;56.522;14.950;2023-07-29T08:25:42;21.20;99.90
11764;DHT22;5939;56.522;14.950;2023-07-29T08:28:07;21.20;99.90
11764;DHT22;5939;56.522;14.950;2023-07-29T08:30:33;21.30;99.90
11764;DHT22;5939;56.522;14.950;2023-07-29T08:32:58;21.30;99.90
11764;DHT22;5939;56.522;14.950;2023-07-29T08:35:24;21.40;99.90
11764;DHT22;5939;56.522;14.950;2023-07-29T08:37:50;21.40;99.90
11764;DHT22;5939;56.522;14.950;2023-07-29T08:40:15;21.50;99.90
11764;DHT22;5939;56.522;14.950;2023-07-29T08:42:41;21.50;99.90
11764;DHT22;5939;56.522;14.950;2023-07-29T08:45:11;21.60;99.90
11764;DHT22;5939;56.522;14.950;2023-07-29T08:47:37;21.70;99.90
11764;DHT22;5939;56.522;14.950;2023-07-29T08:50:03;21.70;99.90
11764;DHT22;5939;56.522;14.950;2023-07-29T08:52:29;21.80;99.90
11764;DHT22;5939;56.522;14.950;2023-07-29T08:54:55;21.80;99.90
11764;DHT22;5939;56.522;14.950;2023-07-29T08:57:22;21.90;99.90
11764;DHT22;5939;56.522;14.950;2023-07-29T08:59:48;21.90;99.90
11764;DHT22;5939;56.522;14.950;2023-07-29T09:02:14;22.00;99.90
11764;DHT22;5939;56.522;14.950;2023-07-29T09:04:40;22.00;99.90
11764;DHT22;5939;56.522;14.950;2023-07-29T09:07:05;22.00;99.90
11764;DHT22;5939;56.522;14.950;2023-07-29T09:09:32;22.10;99.90
11764;DHT22;5939;56.522;14.950;2023-07-29T09:11:58;22.10;99.90
11764;DHT22;5939;56.522;14.950;2023-07-29T09:14:24;22.10;99.90
11764;DHT22;5939;56.522;14.950;2023-07-29T09:16:49;22.20;99.90
11764;DHT22;5939;56.522;14.950;2023-07-29T09:19:15;22.20;99.90
11764;DHT22;5939;56.522;14.950;2023-07-29T09:21:42;22.20;99.90
11764;DHT22;5939;56.522;14.950;2023-07-29T09:24:08;22.30;99.90
11764;DHT22;5939;56.522;14.950;2023-07-29T09:26:34;22.30;99.90
11764;DHT22;5939;56.522;14.950;2023-07-29T09:29:00;22.40;99.90
11764;DHT22;5939;56.522;14.950;2023-07-29T09:31:27;22.40;99.90
11764;DHT22;5939;56.522;14.950;2023-07-29T09:34:01;22.40;99.90
11764;DHT22;5939;56.522;14.950;2023-07-29T09:36:30;22.50;99.90
11764;DHT22;5939;56.522;14.950;2023-07-29T09:38:57;22.50;99.90
11764;DHT22;5939;56.522;14.950;2023-07-29T09:41:27;22.50;99.90
11764;DHT22;5939;56.522;14.950;2023-07-29T09:44:01;22.60;99.90
11764;DHT22;5939;56.522;14.950;2023-07-29T09:46:33;22.60;99.90
11764;DHT22;5939;56.522;14.950;2023-07-29T09:48:59;22.60;99.90
11764;DHT22;5939;56.522;14.950;2023-07-29T09:51:25;22.60;99.90
11764;DHT22;5939;56.522;14.950;2023-07-29T09:53:51;22.70;99.90
11764;DHT22;5939;56.522;14.950;2023-07-29T09:56:25;22.70;99.90
11764;DHT22;5939;56.522;14.950;2023-07-29T09:58:52;22.80;99.90
11764;DHT22;5939;56.522;14.950;2023-07-29T10:01:18;22.80;99.90
11764;DHT22;5939;56.522;14.950;2023-07-29T10:03:44;22.80;99.90
11764;DHT22;5939;56.522;14.950;2023-07-29T10:06:11;22.80;99.90
11764;DHT22;5939;56.522;14.950;2023-07-29T10:08:37;22.90;99.90
11764;DHT22;5939;56.522;14.950;2023-07-29T10:11:08;22.90;99.90
11764;DHT22;5939;56.522;14.950;2023-07-29T10:13:35;22.90;99.90
11764;DHT22;5939;56.522;14.950;2023-07-29T10:16:01;22.90;99.90
11764;DHT22;5939;56.522;14.950;2023-07-29T10:18:31;22.90;99.90
11764;DHT22;5939;56.522;14.950;2023-07-29T10:20:59;22.90;99.90
11764;DHT22;5939;56.522;14.950;2023-07-29T10:23:26;23.00;99.90
11764;DHT22;5939;56.522;14.950;2023-07-29T10:28:26;23.00;99.90
11764;DHT22;5939;56.522;14.950;2023-07-29T10:30:54;23.00;99.90
11764;DHT22;5939;56.522;14.950;2023-07-29T10:33:21;23.00;99.90
11764;DHT22;5939;56.522;14.950;2023-07-29T10:35:47;23.10;99.90
11764;DHT22;5939;56.522;14.950;2023-07-29T10:38:13;23.10;99.90
11764;DHT22;5939;56.522;14.950;2023-07-29T10:40:51;23.10;99.90
11764;DHT22;5939;56.522;14.950;2023-07-29T10:43:31;23.10;99.90
11764;DHT22;5939;56.522;14.950;2023-07-29T10:45:57;23.10;99.90
11764;DHT22;5939;56.522;14.950;2023-07-29T10:48:41;23.10;99.90
11764;DHT22;5939;56.522;14.950;2023-07-29T10:56:32;23.10;99.90
11764;DHT22;5939;56.522;14.950;2023-07-29T10:59:02;23.10;99.90
11764;DHT22;5939;56.522;14.950;2023-07-29T11:01:58;23.10;99.90
11764;DHT22;5939;56.522;14.950;2023-07-29T11:04:27;23.10;99.90
11764;DHT22;5939;56.522;14.950;2023-07-29T11:12:47;23.30;99.90
11764;DHT22;5939;56.522;14.950;2023-07-29T11:15:29;23.30;99.90
11764;DHT22;5939;56.522;14.950;2023-07-29T11:17:59;23.40;99.90
11764;DHT22;5939;56.522;14.950;2023-07-29T11:20:33;23.40;99.90
11764;DHT22;5939;56.522;14.950;2023-07-29T11:23:01;23.40;99.90
11764;DHT22;5939;56.522;14.950;2023-07-29T11:25:28;23.50;99.90
11764;DHT22;5939;56.522;14.950;2023-07-29T11:27:56;23.50;99.90
11764;DHT22;5939;56.522;14.950;2023-07-29T11:30:22;23.50;99.90
11764;DHT22;5939;56.522;14.950;2023-07-29T11:32:55;23.60;99.90
11764;DHT22;5939;56.522;14.950;2023-07-29T11:35:21;23.60;99.90
11764;DHT22;5939;56.522;14.950;2023-07-29T11:37:51;23.60;99.90
11764;DHT22;5939;56.522;14.950;2023-07-29T11:40:19;23.60;99.90
11764;DHT22;5939;56.522;14.950;2023-07-29T11:42:46;23.70;99.90
11764;DHT22;5939;56.522;14.950;2023-07-29T11:45:13;23.70;99.90
11764;DHT22;5939;56.522;14.950;2023-07-29T11:47:39;23.80;99.90
11764;DHT22;5939;56.522;14.950;2023-07-29T11:50:06;23.80;99.90
11764;DHT22;5939;56.522;14.950;2023-07-29T11:52:40;23.90;99.90
11764;DHT22;5939;56.522;14.950;2023-07-29T11:55:07;23.90;99.90
11764;DHT22;5939;56.522;14.950;2023-07-29T11:57:36;23.90;99.90
11764;DHT22;5939;56.522;14.950;2023-07-29T12:00:07;23.90;99.90
11764;DHT22;5939;56.522;14.950;2023-07-29T12:02:38;23.90;99.90
11764;DHT22;5939;56.522;14.950;2023-07-29T12:05:08;23.90;99.90
11764;DHT22;5939;56.522;14.950;2023-07-29T12:07:35;24.00;99.90
11764;DHT22;5939;56.522;14.950;2023-07-29T12:10:02;24.00;99.90
11764;DHT22;5939;56.522;14.950;2023-07-29T12:12:29;24.00;99.90
11764;DHT22;5939;56.522;14.950;2023-07-29T12:14:55;24.10;99.80
11764;DHT22;5939;56.522;14.950;2023-07-29T12:17:20;24.10;99.80
11764;DHT22;5939;56.522;14.950;2023-07-29T12:19:46;24.10;99.90
11764;DHT22;5939;56.522;14.950;2023-07-29T12:22:12;24.20;99.90
11764;DHT22;5939;56.522;14.950;2023-07-29T12:24:42;24.20;99.90
11764;DHT22;5939;56.522;14.950;2023-07-29T12:27:12;24.30;99.90
11764;DHT22;5939;56.522;14.950;2023-07-29T12:29:43;24.30;99.90
11764;DHT22;5939;56.522;14.950;2023-07-29T12:32:09;24.30;99.90
11764;DHT22;5939;56.522;14.950;2023-07-29T12:34:37;24.40;99.90
11764;DHT22;5939;56.522;14.950;2023-07-29T12:37:04;24.40;99.90
11764;DHT22;5939;56.522;14.950;2023-07-29T12:39:32;24.40;99.80
11764;DHT22;5939;56.522;14.950;2023-07-29T12:41:59;24.50;99.70
11764;DHT22;5939;56.522;14.950;2023-07-29T12:44:26;24.50;99.80
11764;DHT22;5939;56.522;14.950;2023-07-29T12:46:52;24.50;99.90
11764;DHT22;5939;56.522;14.950;2023-07-29T12:49:18;24.50;99.80
11764;DHT22;5939;56.522;14.950;2023-07-29T12:51:44;24.50;99.80
11764;DHT22;5939;56.522;14.950;2023-07-29T12:54:10;24.50;99.90
11764;DHT22;5939;56.522;14.950;2023-07-29T12:56:35;24.50;99.70
11764;DHT22;5939;56.522;14.950;2023-07-29T12:59:02;24.60;99.70
11764;DHT22;5939;56.522;14.950;2023-07-29T13:01:28;24.60;99.90
11764;DHT22;5939;56.522;14.950;2023-07-29T13:03:54;24.50;99.90
11764;DHT22;5939;56.522;14.950;2023-07-29T13:06:20;24.50;99.90
11764;DHT22;5939;56.522;14.950;2023-07-29T13:08:47;24.50;99.70
11764;DHT22;5939;56.522;14.950;2023-07-29T13:11:13;24.50;99.90
11764;DHT22;5939;56.522;14.950;2023-07-29T13:13:38;24.50;99.90
11764;DHT22;5939;56.522;14.950;2023-07-29T13:16:04;24.50;99.90
11764;DHT22;5939;56.522;14.950;2023-07-29T13:18:30;24.50;99.90
11764;DHT22;5939;56.522;14.950;2023-07-29T13:20:55;24.50;99.90
11764;DHT22;5939;56.522;14.950;2023-07-29T13:23:21;24.50;99.90
11764;DHT22;5939;56.522;14.950;2023-07-29T13:25:47;24.40;99.90
11764;DHT22;5939;56.522;14.950;2023-07-29T13:28:13;24.40;99.90
11764;DHT22;5939;56.522;14.950;2023-07-29T13:30:39;24.40;99.90
11764;DHT22;5939;56.522;14.950;2023-07-29T13:33:06;24.40;99.90
11764;DHT22;5939;56.522;14.950;2023-07-29T13:35:32;24.40;99.90
11764;DHT22;5939;56.522;14.950;2023-07-29T13:37:57;24.40;99.90
11764;DHT22;5939;56.522;14.950;2023-07-29T13:40:23;24.40;99.90
11764;DHT22;5939;56.522;14.950;2023-07-29T13:42:49;24.40;99.90
11764;DHT22;5939;56.522;14.950;2023-07-29T13:45:14;24.40;99.90
11764;DHT22;5939;56.522;14.950;2023-07-29T13:47:40;24.40;99.90
11764;DHT22;5939;56.522;14.950;2023-07-29T13:50:06;24.40;99.90
11764;DHT22;5939;56.522;14.950;2023-07-29T13:52:33;24.40;99.90
11764;DHT22;5939;56.522;14.950;2023-07-29T13:54:59;24.30;99.90
11764;DHT22;5939;56.522;14.950;2023-07-29T13:57:25;24.30;99.90
11764;DHT22;5939;56.522;14.950;2023-07-29T13:59:50;24.30;99.90
11764;DHT22;5939;56.522;14.950;2023-07-29T14:02:16;24.30;99.90
11764;DHT22;5939;56.522;14.950;2023-07-29T14:04:41;24.30;99.90
11764;DHT22;5939;56.522;14.950;2023-07-29T14:07:07;24.30;99.90
11764;DHT22;5939;56.522;14.950;2023-07-29T14:09:33;24.30;99.90
11764;DHT22;5939;56.522;14.950;2023-07-29T14:11:58;24.30;99.90
11764;DHT22;5939;56.522;14.950;2023-07-29T14:14:24;24.20;99.90
11764;DHT22;5939;56.522;14.950;2023-07-29T14:16:49;24.20;99.90
11764;DHT22;5939;56.522;14.950;2023-07-29T14:19:15;24.20;99.90
11764;DHT22;5939;56.522;14.950;2023-07-29T14:21:41;24.20;99.90
11764;DHT22;5939;56.522;14.950;2023-07-29T14:24:06;24.20;99.90
11764;DHT22;5939;56.522;14.950;2023-07-29T14:26:32;24.20;99.90
11764;DHT22;5939;56.522;14.950;2023-07-29T14:28:58;24.10;99.90
11764;DHT22;5939;56.522;14.950;2023-07-29T14:31:23;24.10;99.90
11764;DHT22;5939;56.522;14.950;2023-07-29T14:33:49;24.10;99.90
11764;DHT22;5939;56.522;14.950;2023-07-29T14:36:15;24.00;99.90
11764;DHT22;5939;56.522;14.950;2023-07-29T14:38:41;24.10;99.90
11764;DHT22;5939;56.522;14.950;2023-07-29T14:41:08;24.00;99.90
11764;DHT22;5939;56.522;14.950;2023-07-29T14:43:34;24.00;99.90
11764;DHT22;5939;56.522;14.950;2023-07-29T14:46:01;23.90;99.90
11764;DHT22;5939;56.522;14.950;2023-07-29T14:48:27;23.90;99.90
11764;DHT22;5939;56.522;14.950;2023-07-29T14:50:52;23.90;99.90
11764;DHT22;5939;56.522;14.950;2023-07-29T14:53:18;23.90;99.90
11764;DHT22;5939;56.522;14.950;2023-07-29T14:55:44;23.90;99.90
11764;DHT22;5939;56.522;14.950;2023-07-29T14:58:09;23.90;99.90
11764;DHT22;5939;56.522;14.950;2023-07-29T15:00:35;23.80;99.90
11764;DHT22;5939;56.522;14.950;2023-07-29T15:03:01;23.80;99.90
11764;DHT22;5939;56.522;14.950;2023-07-29T15:05:26;23.80;99.90
11764;DHT22;5939;56.522;14.950;2023-07-29T15:07:52;23.80;99.90
11764;DHT22;5939;56.522;14.950;2023-07-29T15:10:18;23.70;99.90
11764;DHT22;5939;56.522;14.950;2023-07-29T15:12:47;23.70;99.90
11764;DHT22;5939;56.522;14.950;2023-07-29T15:15:12;23.70;99.90
11764;DHT22;5939;56.522;14.950;2023-07-29T15:17:38;23.60;99.90
11764;DHT22;5939;56.522;14.950;2023-07-29T15:20:04;23.60;99.90
11764;DHT22;5939;56.522;14.950;2023-07-29T15:22:30;23.60;99.90
11764;DHT22;5939;56.522;14.950;2023-07-29T15:25:00;23.60;99.90
11764;DHT22;5939;56.522;14.950;2023-07-29T15:27:27;23.60;99.90
11764;DHT22;5939;56.522;14.950;2023-07-29T15:29:53;23.50;99.90
11764;DHT22;5939;56.522;14.950;2023-07-29T15:32:19;23.50;99.90
11764;DHT22;5939;56.522;14.950;2023-07-29T15:34:45;23.50;99.90
11764;DHT22;5939;56.522;14.950;2023-07-29T15:37:10;23.50;99.90
11764;DHT22;5939;56.522;14.950;2023-07-29T15:39:36;23.50;99.90
11764;DHT22;5939;56.522;14.950;2023-07-29T15:42:02;23.40;99.90
11764;DHT22;5939;56.522;14.950;2023-07-29T15:44:27;23.40;99.90
11764;DHT22;5939;56.522;14.950;2023-07-29T15:46:53;23.40;99.90